sensor_id;sensor_type;location;lat;lon;timestamp;P1;durP1;ratioP1;P2;durP2;ratioP2
16228;SDS011;8222;51.462;12.630;2024-01-06T00:01:36;4.78;;;3.42;;
16228;SDS011;8222;51.462;12.630;2024-01-06T00:04:01;3.57;;;3.27;;
16228;SDS011;8222;51.462;12.630;2024-01-06T00:06:29;4.28;;;3.35;;
16228;SDS011;8222;51.462;12.630;2024-01-06T00:08:55;4.47;;;3.93;;
16228;SDS011;8222;51.462;12.630;2024-01-06T00:11:21;5.97;;;3.50;;
16228;SDS011;8222;51.462;12.630;2024-01-06T00:13:47;4.35;;;3.70;;
16228;SDS011;8222;51.462;12.630;2024-01-06T00:16:17;6.30;;;3.93;;
16228;SDS011;8222;51.462;12.630;2024-01-06T00:18:43;4.40;;;3.60;;
16228;SDS011;8222;51.462;12.630;2024-01-06T00:21:12;5.18;;;3.33;;
16228;SDS011;8222;51.462;12.630;2024-01-06T00:23:42;4.95;;;3.88;;
16228;SDS011;8222;51.462;12.630;2024-01-06T00:26:13;5.05;;;3.65;;
16228;SDS011;8222;51.462;12.630;2024-01-06T00:28:38;4.50;;;3.97;;
16228;SDS011;8222;51.462;12.630;2024-01-06T00:31:04;4.53;;;3.60;;
16228;SDS011;8222;51.462;12.630;2024-01-06T00:33:32;6.13;;;3.65;;
16228;SDS011;8222;51.462;12.630;2024-01-06T00:36:00;4.60;;;3.78;;
16228;SDS011;8222;51.462;12.630;2024-01-06T00:38:28;4.65;;;3.40;;
16228;SDS011;8222;51.462;12.630;2024-01-06T00:40:57;5.65;;;3.35;;
16228;SDS011;8222;51.462;12.630;2024-01-06T00:43:22;4.53;;;3.38;;
16228;SDS011;8222;51.462;12.630;2024-01-06T00:45:48;6.57;;;3.87;;
16228;SDS011;8222;51.462;12.630;2024-01-06T00:48:14;6.05;;;3.90;;
16228;SDS011;8222;51.462;12.630;2024-01-06T00:50:39;4.40;;;4.00;;
16228;SDS011;8222;51.462;12.630;2024-01-06T00:53:05;6.33;;;3.80;;
16228;SDS011;8222;51.462;12.630;2024-01-06T00:55:33;3.10;;;2.80;;
16228;SDS011;8222;51.462;12.630;2024-01-06T00:58:00;5.18;;;3.95;;
16228;SDS011;8222;51.462;12.630;2024-01-06T01:00:29;5.45;;;3.97;;
16228;SDS011;8222;51.462;12.630;2024-01-06T01:02:59;4.32;;;3.72;;
16228;SDS011;8222;51.462;12.630;2024-01-06T01:05:30;5.25;;;3.83;;
16228;SDS011;8222;51.462;12.630;2024-01-06T01:07:58;4.13;;;3.53;;
16228;SDS011;8222;51.462;12.630;2024-01-06T01:10:27;5.53;;;3.77;;
16228;SDS011;8222;51.462;12.630;2024-01-06T01:12:55;6.13;;;3.77;;
16228;SDS011;8222;51.462;12.630;2024-01-06T01:15:20;4.90;;;3.90;;
16228;SDS011;8222;51.462;12.630;2024-01-06T01:17:46;6.50;;;3.83;;
16228;SDS011;8222;51.462;12.630;2024-01-06T01:20:14;4.18;;;3.60;;
16228;SDS011;8222;51.462;12.630;2024-01-06T01:22:39;4.80;;;3.88;;
16228;SDS011;8222;51.462;12.630;2024-01-06T01:25:07;5.15;;;3.80;;
16228;SDS011;8222;51.462;12.630;2024-01-06T01:27:33;5.73;;;3.27;;
16228;SDS011;8222;51.462;12.630;2024-01-06T01:29:59;4.57;;;3.50;;
16228;SDS011;8222;51.462;12.630;2024-01-06T01:32:27;3.80;;;3.40;;
16228;SDS011;8222;51.462;12.630;2024-01-06T01:34:55;4.53;;;3.60;;
16228;SDS011;8222;51.462;12.630;2024-01-06T01:37:21;4.45;;;3.70;;
16228;SDS011;8222;51.462;12.630;2024-01-06T01:39:49;4.43;;;3.42;;
16228;SDS011;8222;51.462;12.630;2024-01-06T01:42:14;3.77;;;2.73;;
16228;SDS011;8222;51.462;12.630;2024-01-06T01:44:42;4.93;;;3.60;;
16228;SDS011;8222;51.462;12.630;2024-01-06T01:47:09;5.30;;;3.35;;
16228;SDS011;8222;51.462;12.630;2024-01-06T01:49:38;4.10;;;3.55;;
16228;SDS011;8222;51.462;12.630;2024-01-06T01:52:06;5.93;;;3.50;;
16228;SDS011;8222;51.462;12.630;2024-01-06T01:54:32;4.93;;;3.73;;
16228;SDS011;8222;51.462;12.630;2024-01-06T01:56:58;6.07;;;3.87;;
16228;SDS011;8222;51.462;12.630;2024-01-06T01:59:25;5.32;;;3.50;;
16228;SDS011;8222;51.462;12.630;2024-01-06T02:01:51;6.90;;;4.20;;
16228;SDS011;8222;51.462;12.630;2024-01-06T02:04:17;5.77;;;4.53;;
16228;SDS011;8222;51.462;12.630;2024-01-06T02:06:47;4.45;;;3.90;;
16228;SDS011;8222;51.462;12.630;2024-01-06T02:09:13;6.20;;;4.40;;
16228;SDS011;8222;51.462;12.630;2024-01-06T02:11:39;4.03;;;3.63;;
16228;SDS011;8222;51.462;12.630;2024-01-06T02:14:04;5.55;;;4.10;;
16228;SDS011;8222;51.462;12.630;2024-01-06T02:16:30;5.13;;;4.20;;
16228;SDS011;8222;51.462;12.630;2024-01-06T02:18:55;5.30;;;4.07;;
16228;SDS011;8222;51.462;12.630;2024-01-06T02:21:23;7.03;;;4.13;;
16228;SDS011;8222;51.462;12.630;2024-01-06T02:23:49;4.93;;;3.35;;
16228;SDS011;8222;51.462;12.630;2024-01-06T02:26:15;9.23;;;4.55;;
16228;SDS011;8222;51.462;12.630;2024-01-06T02:28:43;5.07;;;4.55;;
16228;SDS011;8222;51.462;12.630;2024-01-06T02:31:12;6.40;;;4.90;;
16228;SDS011;8222;51.462;12.630;2024-01-06T02:33:41;4.25;;;3.78;;
16228;SDS011;8222;51.462;12.630;2024-01-06T02:36:06;5.93;;;4.68;;
16228;SDS011;8222;51.462;12.630;2024-01-06T02:38:32;6.50;;;4.82;;
16228;SDS011;8222;51.462;12.630;2024-01-06T02:40:58;5.13;;;4.33;;
16228;SDS011;8222;51.462;12.630;2024-01-06T02:43:23;6.25;;;4.95;;
16228;SDS011;8222;51.462;12.630;2024-01-06T02:45:49;6.57;;;4.50;;
16228;SDS011;8222;51.462;12.630;2024-01-06T02:48:17;8.23;;;4.95;;
16228;SDS011;8222;51.462;12.630;2024-01-06T02:50:43;6.13;;;4.50;;
16228;SDS011;8222;51.462;12.630;2024-01-06T02:53:08;7.30;;;4.75;;
16228;SDS011;8222;51.462;12.630;2024-01-06T02:55:37;6.17;;;4.70;;
16228;SDS011;8222;51.462;12.630;2024-01-06T02:58:05;7.18;;;4.97;;
16228;SDS011;8222;51.462;12.630;2024-01-06T03:00:31;8.68;;;4.70;;
16228;SDS011;8222;51.462;12.630;2024-01-06T03:02:59;5.70;;;4.60;;
16228;SDS011;8222;51.462;12.630;2024-01-06T03:05:25;5.43;;;4.80;;
16228;SDS011;8222;51.462;12.630;2024-01-06T03:07:50;6.68;;;4.75;;
16228;SDS011;8222;51.462;12.630;2024-01-06T03:10:18;5.22;;;4.72;;
16228;SDS011;8222;51.462;12.630;2024-01-06T03:12:48;5.18;;;4.68;;
16228;SDS011;8222;51.462;12.630;2024-01-06T03:15:14;6.00;;;5.28;;
16228;SDS011;8222;51.462;12.630;2024-01-06T03:17:42;7.07;;;4.85;;
16228;SDS011;8222;51.462;12.630;2024-01-06T03:20:10;5.82;;;5.05;;
16228;SDS011;8222;51.462;12.630;2024-01-06T03:22:36;5.50;;;4.60;;
16228;SDS011;8222;51.462;12.630;2024-01-06T03:25:03;7.47;;;5.20;;
16228;SDS011;8222;51.462;12.630;2024-01-06T03:27:31;5.18;;;4.40;;
16228;SDS011;8222;51.462;12.630;2024-01-06T03:29:59;5.68;;;4.45;;
16228;SDS011;8222;51.462;12.630;2024-01-06T03:32:28;8.33;;;4.57;;
16228;SDS011;8222;51.462;12.630;2024-01-06T03:34:54;5.87;;;5.13;;
16228;SDS011;8222;51.462;12.630;2024-01-06T03:37:19;5.37;;;4.87;;
16228;SDS011;8222;51.462;12.630;2024-01-06T03:39:48;5.30;;;4.47;;
16228;SDS011;8222;51.462;12.630;2024-01-06T03:42:14;5.73;;;4.97;;
16228;SDS011;8222;51.462;12.630;2024-01-06T03:44:39;6.85;;;4.95;;
16228;SDS011;8222;51.462;12.630;2024-01-06T03:47:05;5.83;;;5.27;;
16228;SDS011;8222;51.462;12.630;2024-01-06T03:49:33;6.32;;;4.95;;
16228;SDS011;8222;51.462;12.630;2024-01-06T03:52:03;8.00;;;4.40;;
16228;SDS011;8222;51.462;12.630;2024-01-06T03:54:31;6.88;;;4.55;;
16228;SDS011;8222;51.462;12.630;2024-01-06T03:56:57;7.78;;;5.88;;
16228;SDS011;8222;51.462;12.630;2024-01-06T03:59:23;5.47;;;4.30;;
16228;SDS011;8222;51.462;12.630;2024-01-06T04:01:51;6.82;;;5.05;;
16228;SDS011;8222;51.462;12.630;2024-01-06T04:04:16;6.85;;;5.43;;
16228;SDS011;8222;51.462;12.630;2024-01-06T04:06:42;5.67;;;5.17;;
16228;SDS011;8222;51.462;12.630;2024-01-06T04:09:07;6.40;;;5.00;;
16228;SDS011;8222;51.462;12.630;2024-01-06T04:11:34;6.82;;;5.53;;
16228;SDS011;8222;51.462;12.630;2024-01-06T04:14:02;7.47;;;5.22;;
16228;SDS011;8222;51.462;12.630;2024-01-06T04:16:28;5.40;;;4.85;;
16228;SDS011;8222;51.462;12.630;2024-01-06T04:18:54;6.37;;;5.27;;
16228;SDS011;8222;51.462;12.630;2024-01-06T04:21:22;8.05;;;5.38;;
16228;SDS011;8222;51.462;12.630;2024-01-06T04:23:50;5.53;;;4.82;;
16228;SDS011;8222;51.462;12.630;2024-01-06T04:26:18;6.60;;;5.13;;
16228;SDS011;8222;51.462;12.630;2024-01-06T04:28:43;6.07;;;4.50;;
16228;SDS011;8222;51.462;12.630;2024-01-06T04:31:14;6.83;;;5.40;;
16228;SDS011;8222;51.462;12.630;2024-01-06T04:33:39;6.45;;;5.05;;
16228;SDS011;8222;51.462;12.630;2024-01-06T04:36:08;6.13;;;5.43;;
16228;SDS011;8222;51.462;12.630;2024-01-06T04:38:35;5.57;;;4.80;;
16228;SDS011;8222;51.462;12.630;2024-01-06T04:41:01;7.32;;;5.60;;
16228;SDS011;8222;51.462;12.630;2024-01-06T04:43:31;9.40;;;7.45;;
16228;SDS011;8222;51.462;12.630;2024-01-06T04:45:57;29.38;;;22.52;;
16228;SDS011;8222;51.462;12.630;2024-01-06T04:48:23;11.50;;;8.57;;
16228;SDS011;8222;51.462;12.630;2024-01-06T04:50:49;7.80;;;5.73;;
16228;SDS011;8222;51.462;12.630;2024-01-06T04:53:15;4.47;;;3.87;;
16228;SDS011;8222;51.462;12.630;2024-01-06T04:55:42;6.90;;;5.28;;
16228;SDS011;8222;51.462;12.630;2024-01-06T04:58:08;5.43;;;4.90;;
16228;SDS011;8222;51.462;12.630;2024-01-06T05:00:34;6.43;;;4.90;;
16228;SDS011;8222;51.462;12.630;2024-01-06T05:03:01;7.10;;;5.25;;
16228;SDS011;8222;51.462;12.630;2024-01-06T05:05:26;5.53;;;4.70;;
16228;SDS011;8222;51.462;12.630;2024-01-06T05:07:53;6.30;;;4.72;;
16228;SDS011;8222;51.462;12.630;2024-01-06T05:10:19;6.13;;;5.27;;
16228;SDS011;8222;51.462;12.630;2024-01-06T05:12:47;6.22;;;4.85;;
16228;SDS011;8222;51.462;12.630;2024-01-06T05:15:13;7.25;;;5.90;;
16228;SDS011;8222;51.462;12.630;2024-01-06T05:17:41;6.18;;;5.28;;
16228;SDS011;8222;51.462;12.630;2024-01-06T05:20:07;5.25;;;4.55;;
16228;SDS011;8222;51.462;12.630;2024-01-06T05:22:32;6.10;;;4.80;;
16228;SDS011;8222;51.462;12.630;2024-01-06T05:24:58;5.53;;;5.03;;
16228;SDS011;8222;51.462;12.630;2024-01-06T05:27:24;29.52;;;23.92;;
16228;SDS011;8222;51.462;12.630;2024-01-06T05:29:49;17.85;;;13.60;;
16228;SDS011;8222;51.462;12.630;2024-01-06T05:32:22;6.55;;;5.65;;
16228;SDS011;8222;51.462;12.630;2024-01-06T05:34:48;6.65;;;4.82;;
16228;SDS011;8222;51.462;12.630;2024-01-06T05:37:14;5.93;;;5.38;;
16228;SDS011;8222;51.462;12.630;2024-01-06T05:39:42;6.65;;;4.97;;
16228;SDS011;8222;51.462;12.630;2024-01-06T05:42:09;6.43;;;4.97;;
16228;SDS011;8222;51.462;12.630;2024-01-06T05:44:38;5.75;;;5.25;;
16228;SDS011;8222;51.462;12.630;2024-01-06T05:47:04;7.57;;;5.00;;
16228;SDS011;8222;51.462;12.630;2024-01-06T05:49:35;4.07;;;3.67;;
16228;SDS011;8222;51.462;12.630;2024-01-06T05:52:01;6.97;;;5.57;;
16228;SDS011;8222;51.462;12.630;2024-01-06T05:54:26;6.23;;;5.37;;
16228;SDS011;8222;51.462;12.630;2024-01-06T05:56:55;34.63;;;25.83;;
16228;SDS011;8222;51.462;12.630;2024-01-06T05:59:21;6.60;;;5.03;;
16228;SDS011;8222;51.462;12.630;2024-01-06T06:01:47;6.50;;;5.90;;
16228;SDS011;8222;51.462;12.630;2024-01-06T06:04:12;6.20;;;5.60;;
16228;SDS011;8222;51.462;12.630;2024-01-06T06:06:43;5.82;;;5.22;;
16228;SDS011;8222;51.462;12.630;2024-01-06T06:09:11;5.93;;;5.15;;
16228;SDS011;8222;51.462;12.630;2024-01-06T06:11:38;6.47;;;5.45;;
16228;SDS011;8222;51.462;12.630;2024-01-06T06:14:03;6.27;;;5.50;;
16228;SDS011;8222;51.462;12.630;2024-01-06T06:16:29;5.72;;;5.07;;
16228;SDS011;8222;51.462;12.630;2024-01-06T06:19:00;7.57;;;5.65;;
16228;SDS011;8222;51.462;12.630;2024-01-06T06:21:25;5.53;;;4.70;;
16228;SDS011;8222;51.462;12.630;2024-01-06T06:23:53;6.18;;;4.72;;
16228;SDS011;8222;51.462;12.630;2024-01-06T06:26:22;5.88;;;5.38;;
16228;SDS011;8222;51.462;12.630;2024-01-06T06:28:47;5.10;;;4.23;;
16228;SDS011;8222;51.462;12.630;2024-01-06T06:31:15;5.88;;;5.28;;
16228;SDS011;8222;51.462;12.630;2024-01-06T06:33:41;5.43;;;4.93;;
16228;SDS011;8222;51.462;12.630;2024-01-06T06:36:07;6.00;;;5.13;;
16228;SDS011;8222;51.462;12.630;2024-01-06T06:38:33;4.80;;;4.30;;
16228;SDS011;8222;51.462;12.630;2024-01-06T06:41:01;25.53;;;20.00;;
16228;SDS011;8222;51.462;12.630;2024-01-06T06:43:29;10.43;;;7.75;;
16228;SDS011;8222;51.462;12.630;2024-01-06T06:45:57;10.05;;;6.45;;
16228;SDS011;8222;51.462;12.630;2024-01-06T06:48:22;5.20;;;4.80;;
16228;SDS011;8222;51.462;12.630;2024-01-06T06:50:48;6.25;;;5.65;;
16228;SDS011;8222;51.462;12.630;2024-01-06T06:53:14;4.70;;;4.20;;
16228;SDS011;8222;51.462;12.630;2024-01-06T06:55:39;6.82;;;5.60;;
16228;SDS011;8222;51.462;12.630;2024-01-06T06:58:07;7.60;;;4.93;;
16228;SDS011;8222;51.462;12.630;2024-01-06T07:00:33;6.88;;;5.40;;
16228;SDS011;8222;51.462;12.630;2024-01-06T07:03:02;5.97;;;5.35;;
16228;SDS011;8222;51.462;12.630;2024-01-06T07:05:28;6.43;;;4.73;;
16228;SDS011;8222;51.462;12.630;2024-01-06T07:07:56;6.13;;;4.90;;
16228;SDS011;8222;51.462;12.630;2024-01-06T07:10:22;6.38;;;5.65;;
16228;SDS011;8222;51.462;12.630;2024-01-06T07:12:53;5.22;;;4.75;;
16228;SDS011;8222;51.462;12.630;2024-01-06T07:15:23;6.25;;;5.72;;
16228;SDS011;8222;51.462;12.630;2024-01-06T07:17:49;6.32;;;4.95;;
16228;SDS011;8222;51.462;12.630;2024-01-06T07:20:15;6.20;;;5.60;;
16228;SDS011;8222;51.462;12.630;2024-01-06T07:22:43;6.63;;;5.90;;
16228;SDS011;8222;51.462;12.630;2024-01-06T07:25:11;7.23;;;6.17;;
16228;SDS011;8222;51.462;12.630;2024-01-06T07:27:36;7.68;;;6.22;;
16228;SDS011;8222;51.462;12.630;2024-01-06T07:30:04;7.45;;;6.80;;
16228;SDS011;8222;51.462;12.630;2024-01-06T07:32:35;9.15;;;8.25;;
16228;SDS011;8222;51.462;12.630;2024-01-06T07:35:01;9.15;;;8.27;;
16228;SDS011;8222;51.462;12.630;2024-01-06T07:37:27;10.02;;;8.93;;
16228;SDS011;8222;51.462;12.630;2024-01-06T07:39:55;9.85;;;8.95;;
16228;SDS011;8222;51.462;12.630;2024-01-06T07:42:23;9.17;;;8.27;;
16228;SDS011;8222;51.462;12.630;2024-01-06T07:44:49;7.05;;;6.43;;
16228;SDS011;8222;51.462;12.630;2024-01-06T07:47:14;7.00;;;6.30;;
16228;SDS011;8222;51.462;12.630;2024-01-06T07:49:40;6.60;;;5.63;;
16228;SDS011;8222;51.462;12.630;2024-01-06T07:52:11;7.50;;;5.47;;
16228;SDS011;8222;51.462;12.630;2024-01-06T07:54:38;6.47;;;5.63;;
16228;SDS011;8222;51.462;12.630;2024-01-06T07:57:06;8.57;;;6.60;;
16228;SDS011;8222;51.462;12.630;2024-01-06T07:59:32;6.50;;;5.85;;
16228;SDS011;8222;51.462;12.630;2024-01-06T08:02:00;7.80;;;6.43;;
16228;SDS011;8222;51.462;12.630;2024-01-06T08:04:26;10.57;;;6.80;;
16228;SDS011;8222;51.462;12.630;2024-01-06T08:06:54;9.07;;;6.27;;
16228;SDS011;8222;51.462;12.630;2024-01-06T08:09:20;10.35;;;6.30;;
16228;SDS011;8222;51.462;12.630;2024-01-06T08:11:48;6.70;;;5.25;;
16228;SDS011;8222;51.462;12.630;2024-01-06T08:14:17;7.57;;;6.72;;
16228;SDS011;8222;51.462;12.630;2024-01-06T08:16:45;8.15;;;6.90;;
16228;SDS011;8222;51.462;12.630;2024-01-06T08:19:12;9.23;;;7.72;;
16228;SDS011;8222;51.462;12.630;2024-01-06T08:21:41;10.77;;;8.65;;
16228;SDS011;8222;51.462;12.630;2024-01-06T08:24:06;9.00;;;8.07;;
16228;SDS011;8222;51.462;12.630;2024-01-06T08:26:32;10.02;;;8.25;;
16228;SDS011;8222;51.462;12.630;2024-01-06T08:28:58;9.05;;;8.05;;
16228;SDS011;8222;51.462;12.630;2024-01-06T08:31:29;9.55;;;7.72;;
16228;SDS011;8222;51.462;12.630;2024-01-06T08:33:54;9.77;;;7.73;;
16228;SDS011;8222;51.462;12.630;2024-01-06T08:36:23;13.50;;;9.47;;
16228;SDS011;8222;51.462;12.630;2024-01-06T08:38:51;10.70;;;9.60;;
16228;SDS011;8222;51.462;12.630;2024-01-06T08:41:21;10.38;;;9.30;;
16228;SDS011;8222;51.462;12.630;2024-01-06T08:43:49;11.90;;;10.55;;
16228;SDS011;8222;51.462;12.630;2024-01-06T08:46:14;10.93;;;9.82;;
16228;SDS011;8222;51.462;12.630;2024-01-06T08:48:40;12.93;;;10.63;;
16228;SDS011;8222;51.462;12.630;2024-01-06T08:51:06;10.73;;;9.65;;
16228;SDS011;8222;51.462;12.630;2024-01-06T08:53:34;10.70;;;9.23;;
16228;SDS011;8222;51.462;12.630;2024-01-06T08:56:02;13.05;;;9.73;;
16228;SDS011;8222;51.462;12.630;2024-01-06T08:58:28;12.13;;;9.50;;
16228;SDS011;8222;51.462;12.630;2024-01-06T09:00:54;13.67;;;10.83;;
16228;SDS011;8222;51.462;12.630;2024-01-06T09:03:22;12.50;;;10.10;;
16228;SDS011;8222;51.462;12.630;2024-01-06T09:05:51;10.98;;;9.68;;
16228;SDS011;8222;51.462;12.630;2024-01-06T09:08:17;10.27;;;9.18;;
16228;SDS011;8222;51.462;12.630;2024-01-06T09:10:43;11.07;;;9.95;;
16228;SDS011;8222;51.462;12.630;2024-01-06T09:13:09;10.52;;;9.48;;
16228;SDS011;8222;51.462;12.630;2024-01-06T09:15:35;11.27;;;9.50;;
16228;SDS011;8222;51.462;12.630;2024-01-06T09:18:01;10.47;;;9.40;;
16228;SDS011;8222;51.462;12.630;2024-01-06T09:20:27;10.27;;;9.25;;
16228;SDS011;8222;51.462;12.630;2024-01-06T09:22:55;11.48;;;9.80;;
16228;SDS011;8222;51.462;12.630;2024-01-06T09:25:21;9.93;;;8.93;;
16228;SDS011;8222;51.462;12.630;2024-01-06T09:27:52;11.10;;;9.90;;
16228;SDS011;8222;51.462;12.630;2024-01-06T09:30:18;9.88;;;8.88;;
16228;SDS011;8222;51.462;12.630;2024-01-06T09:32:44;11.27;;;10.17;;
16228;SDS011;8222;51.462;12.630;2024-01-06T09:35:09;10.10;;;9.10;;
16228;SDS011;8222;51.462;12.630;2024-01-06T09:37:38;10.82;;;9.52;;
16228;SDS011;8222;51.462;12.630;2024-01-06T09:40:11;10.70;;;9.35;;
16228;SDS011;8222;51.462;12.630;2024-01-06T09:42:40;9.00;;;8.02;;
16228;SDS011;8222;51.462;12.630;2024-01-06T09:45:06;11.50;;;9.70;;
16228;SDS011;8222;51.462;12.630;2024-01-06T09:47:35;11.10;;;9.98;;
16228;SDS011;8222;51.462;12.630;2024-01-06T09:50:01;11.60;;;10.00;;
16228;SDS011;8222;51.462;12.630;2024-01-06T09:52:29;11.70;;;9.27;;
16228;SDS011;8222;51.462;12.630;2024-01-06T09:55:00;11.88;;;9.80;;
16228;SDS011;8222;51.462;12.630;2024-01-06T09:57:34;10.85;;;8.93;;
16228;SDS011;8222;51.462;12.630;2024-01-06T10:00:03;10.77;;;9.55;;
16228;SDS011;8222;51.462;12.630;2024-01-06T10:02:33;13.05;;;10.85;;
16228;SDS011;8222;51.462;12.630;2024-01-06T10:04:59;12.20;;;10.47;;
16228;SDS011;8222;51.462;12.630;2024-01-06T10:07:27;9.57;;;8.57;;
16228;SDS011;8222;51.462;12.630;2024-01-06T10:09:56;12.75;;;10.85;;
16228;SDS011;8222;51.462;12.630;2024-01-06T10:12:25;13.27;;;10.95;;
16228;SDS011;8222;51.462;12.630;2024-01-06T10:14:53;12.55;;;11.23;;
16228;SDS011;8222;51.462;12.630;2024-01-06T10:17:19;12.02;;;10.75;;
16228;SDS011;8222;51.462;12.630;2024-01-06T10:19:45;13.40;;;10.13;;
16228;SDS011;8222;51.462;12.630;2024-01-06T10:22:12;12.52;;;10.82;;
16228;SDS011;8222;51.462;12.630;2024-01-06T10:24:40;12.90;;;10.95;;
16228;SDS011;8222;51.462;12.630;2024-01-06T10:27:06;15.02;;;11.85;;
16228;SDS011;8222;51.462;12.630;2024-01-06T10:29:33;14.02;;;11.23;;
16228;SDS011;8222;51.462;12.630;2024-01-06T10:32:02;14.35;;;12.20;;
16228;SDS011;8222;51.462;12.630;2024-01-06T10:34:28;16.48;;;13.38;;
16228;SDS011;8222;51.462;12.630;2024-01-06T10:36:57;13.50;;;11.63;;
16228;SDS011;8222;51.462;12.630;2024-01-06T10:39:24;14.90;;;12.25;;
16228;SDS011;8222;51.462;12.630;2024-01-06T10:41:54;17.95;;;13.43;;
16228;SDS011;8222;51.462;12.630;2024-01-06T10:44:23;16.75;;;12.70;;
16228;SDS011;8222;51.462;12.630;2024-01-06T10:46:53;17.40;;;12.43;;
16228;SDS011;8222;51.462;12.630;2024-01-06T10:49:21;15.60;;;12.27;;
16228;SDS011;8222;51.462;12.630;2024-01-06T10:51:49;17.25;;;12.70;;
16228;SDS011;8222;51.462;12.630;2024-01-06T10:54:15;14.80;;;12.75;;
16228;SDS011;8222;51.462;12.630;2024-01-06T10:56:45;13.68;;;12.23;;
16228;SDS011;8222;51.462;12.630;2024-01-06T10:59:15;16.08;;;13.38;;
16228;SDS011;8222;51.462;12.630;2024-01-06T11:01:44;15.55;;;12.98;;
16228;SDS011;8222;51.462;12.630;2024-01-06T11:04:10;15.73;;;12.57;;
16228;SDS011;8222;51.462;12.630;2024-01-06T11:06:36;15.43;;;12.52;;
16228;SDS011;8222;51.462;12.630;2024-01-06T11:09:11;17.33;;;12.40;;
16228;SDS011;8222;51.462;12.630;2024-01-06T11:11:46;16.70;;;12.95;;
16228;SDS011;8222;51.462;12.630;2024-01-06T11:14:26;18.65;;;13.50;;
16228;SDS011;8222;51.462;12.630;2024-01-06T11:16:58;16.00;;;13.85;;
16228;SDS011;8222;51.462;12.630;2024-01-06T11:24:50;17.63;;;13.70;;
16228;SDS011;8222;51.462;12.630;2024-01-06T11:27:23;19.10;;;15.13;;
16228;SDS011;8222;51.462;12.630;2024-01-06T11:29:53;19.13;;;14.75;;
16228;SDS011;8222;51.462;12.630;2024-01-06T11:32:20;17.30;;;13.80;;
16228;SDS011;8222;51.462;12.630;2024-01-06T11:34:56;18.13;;;14.07;;
16228;SDS011;8222;51.462;12.630;2024-01-06T11:40:16;19.98;;;15.73;;
16228;SDS011;8222;51.462;12.630;2024-01-06T11:43:01;18.75;;;13.90;;
16228;SDS011;8222;51.462;12.630;2024-01-06T11:45:30;20.08;;;15.05;;
16228;SDS011;8222;51.462;12.630;2024-01-06T11:48:00;18.38;;;14.45;;
16228;SDS011;8222;51.462;12.630;2024-01-06T11:50:28;20.20;;;15.75;;
16228;SDS011;8222;51.462;12.630;2024-01-06T11:52:58;24.10;;;16.25;;
16228;SDS011;8222;51.462;12.630;2024-01-06T11:55:25;23.38;;;16.65;;
16228;SDS011;8222;51.462;12.630;2024-01-06T11:57:59;22.20;;;15.45;;
16228;SDS011;8222;51.462;12.630;2024-01-06T12:00:31;24.90;;;17.40;;
16228;SDS011;8222;51.462;12.630;2024-01-06T12:03:04;20.13;;;14.70;;
16228;SDS011;8222;51.462;12.630;2024-01-06T12:05:30;26.50;;;17.37;;
16228;SDS011;8222;51.462;12.630;2024-01-06T12:07:56;23.87;;;18.07;;
16228;SDS011;8222;51.462;12.630;2024-01-06T12:10:24;29.10;;;18.85;;
16228;SDS011;8222;51.462;12.630;2024-01-06T12:15:25;32.97;;;21.35;;
16228;SDS011;8222;51.462;12.630;2024-01-06T12:17:52;35.87;;;20.83;;
16228;SDS011;8222;51.462;12.630;2024-01-06T12:20:18;35.47;;;21.08;;
16228;SDS011;8222;51.462;12.630;2024-01-06T12:22:46;32.78;;;21.17;;
16228;SDS011;8222;51.462;12.630;2024-01-06T12:25:16;35.03;;;21.50;;
16228;SDS011;8222;51.462;12.630;2024-01-06T12:27:43;37.00;;;22.42;;
16228;SDS011;8222;51.462;12.630;2024-01-06T12:30:13;35.38;;;22.42;;
16228;SDS011;8222;51.462;12.630;2024-01-06T12:32:45;31.30;;;19.88;;
16228;SDS011;8222;51.462;12.630;2024-01-06T12:35:15;41.85;;;23.38;;
16228;SDS011;8222;51.462;12.630;2024-01-06T12:37:42;44.88;;;23.77;;
16228;SDS011;8222;51.462;12.630;2024-01-06T12:40:10;45.83;;;23.17;;
16228;SDS011;8222;51.462;12.630;2024-01-06T12:42:41;42.10;;;22.65;;
16228;SDS011;8222;51.462;12.630;2024-01-06T12:45:17;39.75;;;23.23;;
16228;SDS011;8222;51.462;12.630;2024-01-06T12:47:45;42.15;;;24.27;;
16228;SDS011;8222;51.462;12.630;2024-01-06T12:50:10;43.30;;;24.27;;
16228;SDS011;8222;51.462;12.630;2024-01-06T12:52:36;46.95;;;25.90;;
16228;SDS011;8222;51.462;12.630;2024-01-06T12:55:04;49.20;;;25.88;;
16228;SDS011;8222;51.462;12.630;2024-01-06T12:57:30;47.97;;;25.88;;
16228;SDS011;8222;51.462;12.630;2024-01-06T12:59:58;52.78;;;26.48;;
16228;SDS011;8222;51.462;12.630;2024-01-06T13:02:24;48.58;;;25.65;;
16228;SDS011;8222;51.462;12.630;2024-01-06T13:04:50;49.45;;;25.48;;
16228;SDS011;8222;51.462;12.630;2024-01-06T13:07:20;50.05;;;27.70;;
16228;SDS011;8222;51.462;12.630;2024-01-06T13:09:54;47.83;;;25.63;;
16228;SDS011;8222;51.462;12.630;2024-01-06T13:12:20;52.70;;;27.17;;
16228;SDS011;8222;51.462;12.630;2024-01-06T13:14:45;49.93;;;25.57;;
16228;SDS011;8222;51.462;12.630;2024-01-06T13:17:16;53.40;;;27.10;;
16228;SDS011;8222;51.462;12.630;2024-01-06T13:19:44;52.47;;;27.38;;
16228;SDS011;8222;51.462;12.630;2024-01-06T13:22:10;51.30;;;27.70;;
16228;SDS011;8222;51.462;12.630;2024-01-06T13:24:36;52.90;;;28.13;;
16228;SDS011;8222;51.462;12.630;2024-01-06T13:27:01;59.63;;;29.17;;
16228;SDS011;8222;51.462;12.630;2024-01-06T13:29:28;55.07;;;28.23;;
16228;SDS011;8222;51.462;12.630;2024-01-06T13:31:56;58.17;;;30.40;;
16228;SDS011;8222;51.462;12.630;2024-01-06T13:34:25;58.58;;;29.23;;
16228;SDS011;8222;51.462;12.630;2024-01-06T13:36:54;63.55;;;31.98;;
16228;SDS011;8222;51.462;12.630;2024-01-06T13:39:20;56.95;;;28.95;;
16228;SDS011;8222;51.462;12.630;2024-01-06T13:41:46;64.27;;;32.07;;
16228;SDS011;8222;51.462;12.630;2024-01-06T13:44:15;62.88;;;31.75;;
16228;SDS011;8222;51.462;12.630;2024-01-06T13:46:43;59.05;;;31.67;;
16228;SDS011;8222;51.462;12.630;2024-01-06T13:49:13;58.78;;;32.30;;
16228;SDS011;8222;51.462;12.630;2024-01-06T13:51:41;60.08;;;31.23;;
16228;SDS011;8222;51.462;12.630;2024-01-06T13:54:10;59.33;;;31.33;;
16228;SDS011;8222;51.462;12.630;2024-01-06T13:56:36;56.85;;;31.00;;
16228;SDS011;8222;51.462;12.630;2024-01-06T13:59:07;59.22;;;31.15;;
16228;SDS011;8222;51.462;12.630;2024-01-06T14:01:33;58.78;;;30.15;;
16228;SDS011;8222;51.462;12.630;2024-01-06T14:04:01;57.10;;;30.07;;
16228;SDS011;8222;51.462;12.630;2024-01-06T14:06:30;55.58;;;29.67;;
16228;SDS011;8222;51.462;12.630;2024-01-06T14:08:59;55.05;;;30.02;;
16228;SDS011;8222;51.462;12.630;2024-01-06T14:11:28;56.08;;;29.63;;
16228;SDS011;8222;51.462;12.630;2024-01-06T14:13:57;60.30;;;31.73;;
16228;SDS011;8222;51.462;12.630;2024-01-06T14:16:25;55.60;;;30.45;;
16228;SDS011;8222;51.462;12.630;2024-01-06T14:18:51;64.53;;;30.52;;
16228;SDS011;8222;51.462;12.630;2024-01-06T14:21:17;66.57;;;33.83;;
16228;SDS011;8222;51.462;12.630;2024-01-06T14:23:45;57.10;;;29.92;;
16228;SDS011;8222;51.462;12.630;2024-01-06T14:26:10;61.22;;;32.60;;
16228;SDS011;8222;51.462;12.630;2024-01-06T14:28:36;66.03;;;33.25;;
16228;SDS011;8222;51.462;12.630;2024-01-06T14:31:04;65.78;;;32.67;;
16228;SDS011;8222;51.462;12.630;2024-01-06T14:33:30;64.65;;;34.33;;
16228;SDS011;8222;51.462;12.630;2024-01-06T14:35:58;62.95;;;31.60;;
16228;SDS011;8222;51.462;12.630;2024-01-06T14:38:26;62.90;;;31.90;;
16228;SDS011;8222;51.462;12.630;2024-01-06T14:40:52;68.10;;;31.80;;
16228;SDS011;8222;51.462;12.630;2024-01-06T14:43:18;72.72;;;33.60;;
16228;SDS011;8222;51.462;12.630;2024-01-06T14:45:46;69.20;;;33.58;;
16228;SDS011;8222;51.462;12.630;2024-01-06T14:48:12;73.63;;;34.70;;
16228;SDS011;8222;51.462;12.630;2024-01-06T14:50:38;67.30;;;33.40;;